createdAt,value
2022-11-13T00:00:05.845Z,45.30
2022-11-13T00:02:52.178Z,43.42
2022-11-13T00:05:38.899Z,44.92
2022-11-13T00:08:25.401Z,44.25
2022-11-13T00:11:15.082Z,43.28
2022-11-13T00:14:01.286Z,43.38
2022-11-13T00:16:47.624Z,48.83
2022-11-13T00:19:33.624Z,44.33
2022-11-13T00:22:19.947Z,44.00
2022-11-13T00:25:06.500Z,45.33
2022-11-13T00:27:53.212Z,48.00
2022-11-13T00:30:42.769Z,46.10
2022-11-13T00:33:54.896Z,47.20
2022-11-13T00:36:35.554Z,42.92
2022-11-13T00:39:22.428Z,45.47
2022-11-13T00:42:08.899Z,45.15
2022-11-13T00:44:55.272Z,44.47
2022-11-13T00:47:44.866Z,43.72
2022-11-13T00:50:32.029Z,46.55
2022-11-13T00:53:18.784Z,48.15
2022-11-13T00:56:05.543Z,49.42
2022-11-13T00:58:53.581Z,45.78
2022-11-13T01:01:47.380Z,44.22
2022-11-13T01:04:33.819Z,42.65
2022-11-13T01:07:20.137Z,46.25
2022-11-13T01:10:07.385Z,43.85
2022-11-13T01:12:58.158Z,43.63
2022-11-13T01:15:48.583Z,40.65
2022-11-13T01:18:35.142Z,36.93
2022-11-13T01:21:25.411Z,39.92
2022-11-13T01:24:12.347Z,39.25
2022-11-13T01:26:58.814Z,40.67
2022-11-13T01:29:45.378Z,39.47
2022-11-13T01:32:31.617Z,36.90
2022-11-13T01:35:17.984Z,39.80
2022-11-13T01:38:04.450Z,44.00
2022-11-13T01:40:51.172Z,45.72
2022-11-13T01:43:41.766Z,39.75
2022-11-13T01:46:32.472Z,40.85
2022-11-13T01:49:35.588Z,45.10
2022-11-13T01:52:25.094Z,43.65
2022-11-13T01:55:18.921Z,44.20
2022-11-13T01:58:07.797Z,45.95
2022-11-13T02:00:54.104Z,41.15
2022-11-13T02:03:40.383Z,40.25
2022-11-13T02:06:33.208Z,40.10
2022-11-13T02:09:22.511Z,43.00
2022-11-13T02:12:13.845Z,44.85
2022-11-13T02:15:04.300Z,46.95
2022-11-13T02:18:02.831Z,49.88
2022-11-13T02:20:52.004Z,45.00
2022-11-13T02:23:56.500Z,43.63
2022-11-13T02:26:43.214Z,40.75
2022-11-13T02:29:32.798Z,43.90
2022-11-13T02:32:20.577Z,40.03
2022-11-13T02:35:07.442Z,42.22
2022-11-13T02:37:56.445Z,43.72
2022-11-13T02:40:43.724Z,44.08
2022-11-13T02:43:30.632Z,45.90
2022-11-13T02:46:22.076Z,43.13
2022-11-13T02:49:10.574Z,42.50
2022-11-13T02:51:57.077Z,44.03
2022-11-13T02:54:43.491Z,42.08
2022-11-13T02:57:30.177Z,40.30
2022-11-13T03:00:17.327Z,37.88
2022-11-13T03:03:03.964Z,39.65
2022-11-13T03:05:53.776Z,42.40
2022-11-13T03:08:40.206Z,40.15
2022-11-13T03:11:27.682Z,41.78
2022-11-13T03:14:14.485Z,38.40
2022-11-13T03:17:03.940Z,37.72
2022-11-13T03:19:50.055Z,35.38
2022-11-13T03:22:37.702Z,39.95
2022-11-13T03:25:24.051Z,35.72
2022-11-13T03:28:10.067Z,38.90
2022-11-13T03:30:56.201Z,44.95
2022-11-13T03:33:42.559Z,41.38
2022-11-13T03:36:28.438Z,46.53
2022-11-13T03:39:14.417Z,43.33
2022-11-13T03:42:00.420Z,38.92
2022-11-13T03:44:46.623Z,40.08
2022-11-13T03:47:32.855Z,43.33
2022-11-13T03:50:19.169Z,36.65
2022-11-13T03:53:05.495Z,36.85
2022-11-13T03:55:51.796Z,36.25
2022-11-13T03:58:40.323Z,37.53
2022-11-13T04:01:26.607Z,33.00
2022-11-13T04:04:12.860Z,38.42
2022-11-13T04:06:58.960Z,35.60
2022-11-13T04:09:45.316Z,37.13
2022-11-13T04:12:31.285Z,35.47
2022-11-13T04:15:18.328Z,39.17
2022-11-13T04:18:05.091Z,39.28
2022-11-13T04:20:51.285Z,40.33
2022-11-13T04:23:37.454Z,38.10
2022-11-13T04:26:23.620Z,42.92
2022-11-13T04:29:09.810Z,37.80
2022-11-13T04:31:55.986Z,40.38
2022-11-13T04:34:42.340Z,42.13
2022-11-13T04:37:28.330Z,47.25
2022-11-13T04:40:14.179Z,33.92
2022-11-13T04:43:00.043Z,39.70
2022-11-13T04:45:46.317Z,40.70
2022-11-13T04:48:32.603Z,39.55
2022-11-13T04:51:19.005Z,37.08
2022-11-13T04:54:05.197Z,38.30
2022-11-13T04:56:51.394Z,38.90
2022-11-13T04:59:37.189Z,35.45
2022-11-13T05:02:23.497Z,39.58
2022-11-13T05:05:09.911Z,35.97
2022-11-13T05:07:55.989Z,37.17
2022-11-13T05:10:42.167Z,39.38
2022-11-13T05:13:31.977Z,40.33
2022-11-13T05:16:17.941Z,45.50
2022-11-13T05:19:07.282Z,42.97
2022-11-13T05:21:53.332Z,48.13
2022-11-13T05:24:39.627Z,42.88
2022-11-13T05:27:25.378Z,38.05
2022-11-13T05:30:11.954Z,32.45
2022-11-13T05:32:58.031Z,35.63
2022-11-13T05:35:43.901Z,35.70
2022-11-13T05:38:30.709Z,37.03
2022-11-13T05:41:21.647Z,38.65
2022-11-13T05:44:07.789Z,36.85
2022-11-13T05:46:53.789Z,40.65
2022-11-13T05:49:40.102Z,45.60
2022-11-13T05:52:26.166Z,41.95
2022-11-13T05:55:12.131Z,45.20
2022-11-13T05:57:59.094Z,31.63
2022-11-13T06:00:45.137Z,33.35
2022-11-13T06:03:31.155Z,39.15
2022-11-13T06:06:20.639Z,42.28
2022-11-13T06:09:07.142Z,37.78
2022-11-13T06:11:53.331Z,45.15
2022-11-13T06:14:39.630Z,36.08
2022-11-13T06:17:25.843Z,34.58
2022-11-13T06:20:11.864Z,48.70
2022-11-13T06:22:58.693Z,55.35
2022-11-13T06:25:44.757Z,43.13
2022-11-13T06:28:31.347Z,30.77
2022-11-13T06:31:26.846Z,39.75
2022-11-13T06:34:13.245Z,49.67
2022-11-13T06:37:01.666Z,38.58
2022-11-13T06:39:48.005Z,48.22
2022-11-13T06:42:34.333Z,37.47
2022-11-13T06:45:20.365Z,36.60
2022-11-13T06:48:06.590Z,47.70
2022-11-13T06:50:55.144Z,40.72
2022-11-13T06:53:41.428Z,42.28
2022-11-13T06:56:27.246Z,36.78
2022-11-13T06:59:13.358Z,34.65
2022-11-13T07:01:59.329Z,30.85
2022-11-13T07:04:45.557Z,34.45
2022-11-13T07:07:31.823Z,28.30
2022-11-13T07:10:17.735Z,34.97
2022-11-13T07:13:04.342Z,28.20
2022-11-13T07:15:51.048Z,30.42
2022-11-13T07:18:37.436Z,32.25
2022-11-13T07:21:24.048Z,44.45
2022-11-13T07:24:14.138Z,27.38
2022-11-13T07:27:03.546Z,38.67
2022-11-13T07:29:49.624Z,28.55
2022-11-13T07:32:35.755Z,25.55
2022-11-13T07:35:22.113Z,26.73
2022-11-13T07:38:08.726Z,31.73
2022-11-13T07:40:55.081Z,34.30
2022-11-13T07:43:41.092Z,28.95
2022-11-13T07:46:27.165Z,30.65
2022-11-13T07:49:13.496Z,30.98
2022-11-13T07:51:59.507Z,32.78
2022-11-13T07:54:45.649Z,30.00
2022-11-13T07:57:31.525Z,39.33
2022-11-13T08:00:18.270Z,33.15
2022-11-13T08:03:07.200Z,23.23
2022-11-13T08:05:59.359Z,29.88
2022-11-13T08:08:51.992Z,26.48
2022-11-13T08:11:38.167Z,27.52
2022-11-13T08:14:24.089Z,28.15
2022-11-13T08:17:09.914Z,26.33
2022-11-13T08:19:55.899Z,30.15
2022-11-13T08:22:42.197Z,27.40
2022-11-13T08:25:29.052Z,28.73
2022-11-13T08:28:15.595Z,25.10
2022-11-13T08:31:02.672Z,27.20
2022-11-13T08:33:48.768Z,25.30
2022-11-13T08:36:35.289Z,27.63
2022-11-13T08:39:21.311Z,24.52
2022-11-13T08:42:07.600Z,27.77
2022-11-13T08:44:53.814Z,25.48
2022-11-13T08:47:39.878Z,33.83
2022-11-13T08:50:26.077Z,31.30
2022-11-13T08:53:12.339Z,31.73
2022-11-13T08:56:02.125Z,23.13
2022-11-13T08:58:48.402Z,23.60
2022-11-13T09:01:34.557Z,23.55
2022-11-13T09:04:22.719Z,25.88
2022-11-13T09:07:09.359Z,26.55
2022-11-13T09:09:55.722Z,24.25
2022-11-13T09:12:41.908Z,22.40
2022-11-13T09:15:28.934Z,26.27
2022-11-13T09:18:15.304Z,21.48
2022-11-13T09:21:02.914Z,24.25
2022-11-13T09:23:48.789Z,26.40
2022-11-13T09:26:36.284Z,23.10
2022-11-13T09:29:23.446Z,24.20
2022-11-13T09:32:09.358Z,23.88
2022-11-13T09:34:55.730Z,22.60
2022-11-13T09:37:41.549Z,21.63
2022-11-13T09:40:42.178Z,21.23
2022-11-13T09:43:34.039Z,17.23
2022-11-13T09:46:49.647Z,17.92
2022-11-13T09:49:42.590Z,15.52
2022-11-13T09:52:47.388Z,18.08
2022-11-13T09:55:40.153Z,18.98
2022-11-13T09:58:47.410Z,18.98
2022-11-13T10:01:48.333Z,18.05
2022-11-13T10:04:58.959Z,18.30
2022-11-13T10:08:02.845Z,17.67
2022-11-13T10:10:59.094Z,19.08
2022-11-13T10:13:46.782Z,16.58
2022-11-13T10:16:39.279Z,18.70
2022-11-13T10:19:29.980Z,20.02
2022-11-13T10:22:32.878Z,19.75
2022-11-13T10:25:23.237Z,17.75
2022-11-13T10:31:57.151Z,16.00
2022-11-13T10:34:48.268Z,15.65
2022-11-13T10:37:41.124Z,20.65
2022-11-13T10:40:30.400Z,14.57
2022-11-13T10:43:20.332Z,11.60
2022-11-13T10:46:06.751Z,15.03
2022-11-13T10:48:53.270Z,14.65
2022-11-13T10:51:39.823Z,16.05
2022-11-13T10:54:31.232Z,15.20
2022-11-13T10:57:35.431Z,14.32
2022-11-13T11:00:26.917Z,12.15
2022-11-13T11:03:19.563Z,14.32
2022-11-13T11:06:06.020Z,18.50
2022-11-13T11:08:52.206Z,16.52
2022-11-13T11:11:56.723Z,16.25
2022-11-13T11:14:51.862Z,17.10
2022-11-13T11:17:50.471Z,20.75
2022-11-13T11:21:18.763Z,16.73
2022-11-13T11:24:24.940Z,18.85
2022-11-13T11:27:23.157Z,19.40
2022-11-13T11:30:20.327Z,20.45
2022-11-13T11:33:20.079Z,21.92
2022-11-13T11:36:30.663Z,24.00
2022-11-13T11:39:40.907Z,24.90
2022-11-13T11:42:41.644Z,19.98
2022-11-13T11:45:34.512Z,21.55
2022-11-13T11:48:26.516Z,20.23
2022-11-13T11:51:34.125Z,22.67
2022-11-13T11:54:37.246Z,21.08
2022-11-13T11:57:50.004Z,20.08
2022-11-13T12:00:40.823Z,21.50
2022-11-13T12:03:41.558Z,19.70
2022-11-13T12:06:57.128Z,24.17
2022-11-13T12:10:04.780Z,20.45
2022-11-13T12:13:02.869Z,22.75
2022-11-13T12:16:18.799Z,23.30
2022-11-13T12:19:33.263Z,26.13
2022-11-13T12:22:31.587Z,22.77
2022-11-13T12:25:34.875Z,21.58
2022-11-13T12:28:24.904Z,22.42
2022-11-13T12:31:59.721Z,23.38
2022-11-13T12:34:50.058Z,25.42
2022-11-13T12:37:56.492Z,26.92
2022-11-13T12:41:17.815Z,32.97
2022-11-13T12:44:21.747Z,25.52
2022-11-13T12:47:09.172Z,27.20
2022-11-13T12:50:07.136Z,25.13
2022-11-13T12:53:04.886Z,28.63
2022-11-13T12:56:03.791Z,29.60
2022-11-13T12:59:30.288Z,25.42
2022-11-13T13:02:40.085Z,26.35
2022-11-13T13:05:26.176Z,28.00
2022-11-13T13:08:37.123Z,27.60
2022-11-13T13:14:40.872Z,25.42
2022-11-13T13:17:27.093Z,28.98
2022-11-13T13:20:13.031Z,28.75
2022-11-13T13:23:04.822Z,27.25
2022-11-13T13:26:21.138Z,28.15
2022-11-13T13:29:33.767Z,26.77
2022-11-13T13:32:36.264Z,27.15
2022-11-13T13:35:29.793Z,27.25
2022-11-13T13:38:20.424Z,28.40
2022-11-13T13:41:28.243Z,27.98
2022-11-13T13:44:23.506Z,27.23
2022-11-13T13:47:25.853Z,26.50
2022-11-13T13:50:20.554Z,30.13
2022-11-13T13:53:08.858Z,28.42
2022-11-13T13:55:59.234Z,28.40
2022-11-13T14:01:33.966Z,30.00
2022-11-13T14:04:22.996Z,29.90
2022-11-13T14:07:27.830Z,29.15
2022-11-13T14:10:20.333Z,27.45
2022-11-13T14:13:06.396Z,28.10
2022-11-13T14:16:08.459Z,29.15
2022-11-13T14:19:04.545Z,30.27
2022-11-13T14:22:00.335Z,29.77
2022-11-13T14:24:56.613Z,32.05
2022-11-13T14:27:42.845Z,35.03
2022-11-13T14:30:31.217Z,31.63
2022-11-13T14:33:26.436Z,32.63
2022-11-13T14:36:30.110Z,32.70
2022-11-13T14:39:41.328Z,37.63
2022-11-13T14:42:37.738Z,32.85
2022-11-13T14:45:29.588Z,34.45
2022-11-13T14:48:24.154Z,36.20
2022-11-13T14:51:24.197Z,38.17
2022-11-13T14:54:41.821Z,39.47
2022-11-13T14:57:47.882Z,42.50
2022-11-13T15:00:38.471Z,38.22
2022-11-13T15:03:24.857Z,38.72
2022-11-13T15:06:25.956Z,39.72
2022-11-13T15:11:59.770Z,39.65
2022-11-13T15:14:45.778Z,42.80
2022-11-13T15:17:31.866Z,40.90
2022-11-13T15:20:29.088Z,41.22
2022-11-13T15:23:16.657Z,40.28
2022-11-13T15:26:03.545Z,42.63
2022-11-13T15:28:50.377Z,44.70
2022-11-13T15:31:40.330Z,44.08
2022-11-13T15:34:26.943Z,42.78
2022-11-13T15:37:14.962Z,43.20
2022-11-13T15:40:00.975Z,47.38
2022-11-13T15:42:48.307Z,46.45
2022-11-13T15:45:34.475Z,45.00
2022-11-13T15:48:46.991Z,44.67
2022-11-13T15:51:58.949Z,52.20
2022-11-13T15:54:52.758Z,50.38
2022-11-13T16:05:53.354Z,50.17
2022-11-13T16:08:54.797Z,52.90
2022-11-13T16:11:50.031Z,51.58
2022-11-13T16:16:52.801Z,54.38
2022-11-13T16:24:23.976Z,60.55
2022-11-13T16:39:42.263Z,62.90
2022-11-13T16:45:44.512Z,72.78
2022-11-13T16:48:31.136Z,72.85
2022-11-13T16:52:04.164Z,57.10
2022-11-13T16:55:19.136Z,83.50
2022-11-13T17:03:22.640Z,91.25
2022-11-13T17:09:16.867Z,69.57
2022-11-13T17:12:04.252Z,83.20
2022-11-13T17:14:50.577Z,77.40
2022-11-13T17:17:37.099Z,78.95
2022-11-13T17:20:23.588Z,90.03
2022-11-13T17:23:16.117Z,67.05
2022-11-13T17:26:04.150Z,70.00
2022-11-13T17:28:50.574Z,69.90
2022-11-13T17:31:36.758Z,82.05
2022-11-13T17:34:25.090Z,84.07
2022-11-13T17:37:12.927Z,98.85
2022-11-13T17:39:58.961Z,72.05
2022-11-13T17:42:48.059Z,109.40
2022-11-13T17:45:38.545Z,108.10
2022-11-13T17:48:25.023Z,87.40
2022-11-13T17:51:13.531Z,139.52
2022-11-13T17:54:00.625Z,138.23
2022-11-13T17:56:47.349Z,97.95
2022-11-13T17:59:33.393Z,96.82
2022-11-13T18:02:19.787Z,90.82
2022-11-13T18:05:06.988Z,66.70
2022-11-13T18:07:55.882Z,73.90
2022-11-13T18:10:43.074Z,71.88
2022-11-13T18:13:30.812Z,69.47
2022-11-13T18:16:25.673Z,75.72
2022-11-13T18:19:11.868Z,58.65
2022-11-13T18:21:58.220Z,68.25
2022-11-13T18:24:44.616Z,71.40
2022-11-13T18:27:30.956Z,80.35
2022-11-13T18:30:18.057Z,71.45
2022-11-13T18:33:04.559Z,86.63
2022-11-13T18:35:54.883Z,77.75
2022-11-13T18:38:41.403Z,74.33
2022-11-13T18:41:27.614Z,84.15
2022-11-13T18:44:13.538Z,72.72
2022-11-13T18:46:59.716Z,78.88
2022-11-13T18:49:46.210Z,68.38
2022-11-13T18:52:32.899Z,76.22
2022-11-13T18:55:19.064Z,63.53
2022-11-13T18:58:05.494Z,66.55
2022-11-13T19:00:51.359Z,53.15
2022-11-13T19:03:37.759Z,50.42
2022-11-13T19:06:24.142Z,50.63
2022-11-13T19:09:16.247Z,52.55
2022-11-13T19:12:06.999Z,45.40
2022-11-13T19:15:01.026Z,50.28
2022-11-13T19:18:08.116Z,47.83
2022-11-13T19:20:54.894Z,50.60
2022-11-13T19:23:41.649Z,50.90
2022-11-13T19:26:28.152Z,51.08
2022-11-13T19:29:14.427Z,53.92
2022-11-13T19:32:00.808Z,48.05
2022-11-13T19:34:46.875Z,50.85
2022-11-13T19:37:33.598Z,52.60
2022-11-13T19:40:38.399Z,48.80
2022-11-13T19:43:24.975Z,48.35
2022-11-13T19:46:15.967Z,48.80
2022-11-13T19:49:02.520Z,51.05
2022-11-13T19:51:49.147Z,46.63
2022-11-13T19:54:35.689Z,46.95
2022-11-13T19:57:21.978Z,49.85
2022-11-13T20:00:15.700Z,49.22
2022-11-13T20:03:07.322Z,50.17
2022-11-13T20:06:02.154Z,55.30
2022-11-13T20:08:49.184Z,50.95
2022-11-13T20:11:38.749Z,50.15
2022-11-13T20:14:24.988Z,45.10
2022-11-13T20:17:11.145Z,44.13
2022-11-13T20:20:00.187Z,46.78
2022-11-13T20:22:46.834Z,40.78
2022-11-13T20:25:33.106Z,39.20
2022-11-13T20:28:20.203Z,35.20
2022-11-13T20:31:07.660Z,37.95
2022-11-13T20:33:56.507Z,39.83
2022-11-13T20:36:45.567Z,39.40
2022-11-13T20:39:34.310Z,40.15
2022-11-13T20:42:20.815Z,36.13
2022-11-13T20:45:10.657Z,38.85
2022-11-13T20:47:57.139Z,36.85
2022-11-13T20:50:43.637Z,35.28
2022-11-13T20:53:32.296Z,34.33
2022-11-13T20:56:19.659Z,34.10
2022-11-13T20:59:07.482Z,35.70
2022-11-13T21:01:54.863Z,41.53
2022-11-13T21:04:41.218Z,41.15
2022-11-13T21:07:48.813Z,38.17
2022-11-13T21:10:45.094Z,41.75
2022-11-13T21:13:35.224Z,37.72
2022-11-13T21:16:21.795Z,38.92
2022-11-13T21:19:10.062Z,41.47
2022-11-13T21:21:56.490Z,40.45
2022-11-13T21:24:42.557Z,39.60
2022-11-13T21:27:36.599Z,38.28
2022-11-13T21:30:23.958Z,37.85
2022-11-13T21:33:10.751Z,45.50
2022-11-13T21:36:03.091Z,45.45
2022-11-13T21:38:56.093Z,41.28
2022-11-13T21:41:45.341Z,45.42
2022-11-13T21:44:32.009Z,44.88
2022-11-13T21:47:18.708Z,42.00
2022-11-13T21:50:08.508Z,44.30
2022-11-13T21:52:54.506Z,37.90
2022-11-13T21:55:50.152Z,37.90
2022-11-13T21:58:38.750Z,38.00
2022-11-13T22:01:25.705Z,40.83
2022-11-13T22:04:16.220Z,44.20
2022-11-13T22:07:02.642Z,42.90
2022-11-13T22:09:48.923Z,40.88
2022-11-13T22:12:35.189Z,40.13
2022-11-13T22:15:21.262Z,36.55
2022-11-13T22:18:07.463Z,41.97
2022-11-13T22:20:53.413Z,41.30
2022-11-13T22:23:43.615Z,70.68
2022-11-13T22:26:38.327Z,73.75
2022-11-13T22:29:24.843Z,90.97
2022-11-13T22:32:11.223Z,85.47
2022-11-13T22:34:57.552Z,60.38
2022-11-13T22:37:43.853Z,60.38
2022-11-13T22:40:30.484Z,68.82
2022-11-13T22:43:16.714Z,52.40
2022-11-13T22:46:09.061Z,53.00
2022-11-13T22:48:57.242Z,54.90
2022-11-13T22:51:43.537Z,54.22
2022-11-13T22:54:29.683Z,93.03
2022-11-13T22:57:15.983Z,143.52
2022-11-13T23:00:02.572Z,62.63
2022-11-13T23:02:48.450Z,45.28
2022-11-13T23:05:37.351Z,50.20
2022-11-13T23:08:23.523Z,42.63
2022-11-13T23:11:18.793Z,45.42
2022-11-13T23:14:07.491Z,51.28
2022-11-13T23:16:53.364Z,60.05
2022-11-13T23:19:39.294Z,72.47
2022-11-13T23:22:25.614Z,66.30
2022-11-13T23:25:11.492Z,72.47
2022-11-13T23:27:57.714Z,72.70
2022-11-13T23:30:43.638Z,68.03
2022-11-13T23:33:30.499Z,75.07
2022-11-13T23:36:18.143Z,72.53
2022-11-13T23:39:04.535Z,71.07
2022-11-13T23:41:50.520Z,73.53
2022-11-13T23:44:37.059Z,67.15
2022-11-13T23:47:22.883Z,64.43
2022-11-13T23:50:10.076Z,70.05
2022-11-13T23:52:56.119Z,61.15
2022-11-13T23:55:42.745Z,60.88
2022-11-13T23:58:29.104Z,59.90
